Buffalo Niagara International Airport
KBUF : now visible

Airfield :











YOU CAN JOIN US ON...

 
LOGIN :

Register | Disclaimer

   EN    FR    IT 

 









Legend :    VFR   Marginal VFR   IFR   Intensive IFR   Very Intensive IFR
Visi :
Ceiling :
>= 8 km
>= 3000ft
5 to 8 km
1000 to 3000 ft
1500m to 5 km
500 to 1000 ft
800 to 1500m
200 to 500 ft
< 800m
< 200 ft
Symbols :   Thunderstorms  Fog  Heavy snow  Heavy precipitations  Wind > 20 kt






- Airport Elevation : 728 ft
- IATA code : BUF


KBUF - Buffalo Niagara International

CURRENT METAR :
  • 071954Z VRB04KT 10SM -RA BKN065 BKN080 OVC100 15/01 A2977 RMK AO2 RAB27 SLP085 P0000 T01500006

EXPIRED METARs :
  • 071854Z 30005KT 10SM SCT065 BKN085 BKN110 BKN250 17/M03 A2978 RMK AO2 SLP087 VIRGA DSNT W-N T01671033
  • 071754Z 00000KT 10SM FEW075 BKN095 BKN250 17/M03 A2982 RMK AO2 SLP098 T01671033 10172 20061 56035

TAF KBUF
Valid from the 07 at 18:00 until the 08 at 18:00 UTC


071733Z 0718/0818 VRB03KT P6SM BKN250
FM080000 17005KT P6SM OVC025
FM080200 12005KT 6SM -RA OVC015
FM080700 10005KT 3SM -RA BR OVC007
FM081000 VRB03KT 1 1/2SM -RA BR OVC007



MET'MAP, your aeronautical weather chart ! - Copyright ORBIFLY December 2007 - Disclaimer

ORBIFLY MET'MAP TEAM :

Programming & Development : Alexandra Zaïnal
Concept & original design : Baudouin d'Aumeries
Assistance for programming : Marc-Olivier Méhu
Technical & hardware support : Manuel Goepfert

Contact : metmap@orbifly.com




SOURCES & CREDITS :

   NOAA       Earth
Advisory